Time;durP1;ratioP1;P1;durP2;ratioP2;P2;SDS_P1;SDS_P2;PMS_P1;PMS_P2;Temp;Humidity;BMP_temperature;BMP_pressure;BME280_temperature;BME280_humidity;BME280_pressure;Samples;Min_cycle;Max_cycle;Signal;HPM_P1;HPM_P2
2022/03/16 00:02:06;;;;;;;52.72;23.02;;;6.40;69.90;;;;;;9182669;19;20026;-65
2022/03/16 00:05:12;;;;;;;44.47;21.75;;;6.30;69.80;;;;;;9180839;19;20018;-66
2022/03/16 00:08:17;;;;;;;48.13;23.70;;;6.30;69.90;;;;;;9180186;19;20094;-65
2022/03/16 00:11:22;;;;;;;59.08;26.83;;;6.30;69.90;;;;;;9182623;19;20018;-67
2022/03/16 00:14:30;;;;;;;50.88;24.23;;;6.20;69.90;;;;;;9181752;19;20014;-65
2022/03/16 00:17:35;;;;;;;54.55;25.40;;;6.20;70.00;;;;;;9180804;19;20018;-67
2022/03/16 00:20:40;;;;;;;41.88;21.42;;;6.20;70.00;;;;;;9180325;19;20022;-67
2022/03/16 00:23:45;;;;;;;40.28;18.85;;;6.20;70.10;;;;;;9180969;19;20019;-67
2022/03/16 00:26:50;;;;;;;38.83;17.80;;;6.20;70.10;;;;;;9179873;19;20030;-67
2022/03/16 00:29:59;;;;;;;34.10;17.42;;;6.20;70.10;;;;;;9181899;19;20018;-68
2022/03/16 00:33:04;;;;;;;32.30;16.50;;;6.10;70.20;;;;;;9180773;19;20026;-65
2022/03/16 00:36:09;;;;;;;31.20;15.82;;;6.10;70.20;;;;;;9176335;19;20563;-65
2022/03/16 00:39:14;;;;;;;27.90;15.68;;;6.10;70.20;;;;;;9180819;19;20007;-66
2022/03/16 00:42:19;;;;;;;26.20;14.85;;;6.00;70.20;;;;;;9181142;19;20030;-68
2022/03/16 00:45:27;;;;;;;29.35;15.43;;;6.00;70.30;;;;;;9178254;19;20495;-67
2022/03/16 00:48:32;;;;;;;30.83;15.30;;;6.00;70.30;;;;;;9180926;19;20014;-65
2022/03/16 00:51:37;;;;;;;29.38;14.63;;;6.00;70.30;;;;;;9179969;19;20022;-64
2022/03/16 00:54:42;;;;;;;31.20;15.55;;;6.00;70.40;;;;;;9177206;19;20021;-67
2022/03/16 00:57:47;;;;;;;30.27;14.85;;;5.90;70.40;;;;;;9180753;19;20465;-68
2022/03/16 01:00:54;;;;;;;30.75;15.82;;;5.90;70.40;;;;;;9179929;19;20015;-66
2022/03/16 01:04:01;;;;;;;35.13;15.80;;;5.90;70.50;;;;;;9182213;19;20042;-65
2022/03/16 01:07:07;;;;;;;24.20;13.35;;;5.90;70.50;;;;;;9180170;19;20098;-67
2022/03/16 01:10:12;;;;;;;24.83;13.23;;;5.90;70.50;;;;;;9179583;19;20011;-69
2022/03/16 01:13:18;;;;;;;25.75;12.93;;;5.80;70.50;;;;;;9181854;19;20022;-65
2022/03/16 01:16:25;;;;;;;22.80;13.23;;;5.80;70.50;;;;;;9179695;19;20014;-65
2022/03/16 01:19:33;;;;;;;22.13;12.40;;;5.80;70.60;;;;;;9179626;19;20022;-65
2022/03/16 01:22:38;;;;;;;23.13;14.38;;;5.80;70.60;;;;;;9179787;19;20798;-66
2022/03/16 01:25:43;;;;;;;24.98;14.02;;;5.70;70.50;;;;;;9178972;19;20021;-67
2022/03/16 01:28:48;;;;;;;22.35;12.20;;;5.70;70.50;;;;;;9181387;19;20455;-66
2022/03/16 01:31:56;;;;;;;23.00;12.63;;;5.70;71.20;;;;;;9178609;19;20011;-66
2022/03/16 01:35:02;;;;;;;21.48;11.75;;;5.70;70.60;;;;;;9176489;19;20021;-67
2022/03/16 01:38:06;;;;;;;19.17;11.73;;;5.60;70.50;;;;;;9179728;19;20107;-67
2022/03/16 01:41:12;;;;;;;22.33;12.00;;;5.60;70.60;;;;;;9180286;19;20010;-67
2022/03/16 01:44:17;;;;;;;20.70;12.30;;;5.60;70.60;;;;;;9178352;19;20450;-66
2022/03/16 01:47:25;;;;;;;20.42;11.77;;;5.60;70.60;;;;;;9178048;19;20018;-66
2022/03/16 01:50:31;;;;;;;22.38;11.77;;;5.50;70.60;;;;;;9177139;19;20010;-67
2022/03/16 01:53:37;;;;;;;21.33;12.93;;;5.50;70.60;;;;;;9178207;19;20023;-67
2022/03/16 01:56:42;;;;;;;21.50;12.15;;;5.50;70.60;;;;;;9178752;19;20396;-66
2022/03/16 01:59:48;;;;;;;22.17;11.55;;;5.40;70.60;;;;;;9177081;19;20014;-66
2022/03/16 02:02:55;;;;;;;26.88;13.13;;;5.40;70.60;;;;;;9175092;19;20006;-66
2022/03/16 02:06:01;;;;;;;18.33;11.48;;;5.40;70.70;;;;;;9184085;19;20490;-66
2022/03/16 02:09:06;;;;;;;20.02;12.15;;;5.30;70.60;;;;;;9184721;19;20022;-67
2022/03/16 02:12:14;;;;;;;22.83;13.05;;;5.30;70.70;;;;;;9186395;19;20026;-68
2022/03/16 02:15:20;;;;;;;26.35;12.05;;;5.30;70.70;;;;;;9185029;19;20019;-66
2022/03/16 02:18:28;;;;;;;20.35;11.80;;;5.30;70.70;;;;;;9189500;19;20102;-66
2022/03/16 02:21:34;;;;;;;17.70;11.27;;;5.20;70.70;;;;;;9186170;19;20501;-68
2022/03/16 02:24:42;;;;;;;17.40;10.93;;;5.20;70.70;;;;;;9186779;19;20019;-64
2022/03/16 02:27:47;;;;;;;18.77;10.73;;;5.20;70.70;;;;;;9188955;19;20007;-67
2022/03/16 02:30:52;;;;;;;20.42;11.35;;;5.10;70.70;;;;;;9186768;19;20021;-66
2022/03/16 02:33:57;;;;;;;19.85;11.23;;;5.10;70.80;;;;;;9180889;19;20347;-67
2022/03/16 02:37:02;;;;;;;17.27;9.60;;;5.10;70.70;;;;;;9188187;19;20022;-66
2022/03/16 02:40:12;;;;;;;14.38;8.73;;;5.00;70.70;;;;;;9187469;19;20014;-65
2022/03/16 02:43:17;;;;;;;14.30;9.20;;;5.00;70.80;;;;;;9186324;19;20019;-66
2022/03/16 02:46:22;;;;;;;15.05;8.90;;;5.00;70.80;;;;;;9186513;19;20499;-64
2022/03/16 02:49:28;;;;;;;16.98;10.13;;;5.00;70.80;;;;;;9187748;19;20053;-64
2022/03/16 02:52:34;;;;;;;17.65;9.60;;;4.90;70.80;;;;;;9183452;19;20018;-64
2022/03/16 02:55:41;;;;;;;13.43;9.40;;;4.90;70.80;;;;;;9186093;19;20083;-66
2022/03/16 02:58:46;;;;;;;13.48;9.32;;;4.90;70.90;;;;;;9185500;19;20030;-67
2022/03/16 03:01:51;;;;;;;20.90;9.90;;;4.90;70.90;;;;;;9185895;19;20487;-65
2022/03/16 03:04:56;;;;;;;15.70;9.30;;;4.80;70.90;;;;;;9187954;19;20015;-66
2022/03/16 03:08:02;;;;;;;18.70;10.55;;;4.80;70.90;;;;;;9186038;19;20022;-65
2022/03/16 03:11:09;;;;;;;18.73;10.65;;;4.80;70.90;;;;;;9185941;19;20014;-67
2022/03/16 03:14:14;;;;;;;17.92;10.10;;;4.80;71.00;;;;;;9185906;19;20078;-66
2022/03/16 03:17:19;;;;;;;14.77;10.48;;;4.70;70.90;;;;;;9182710;19;20512;-66
2022/03/16 03:20:24;;;;;;;20.90;12.05;;;4.70;70.90;;;;;;9184821;19;20051;-65
2022/03/16 03:23:29;;;;;;;20.85;11.48;;;4.70;70.90;;;;;;9184619;19;20502;-66
2022/03/16 03:26:37;;;;;;;17.92;10.32;;;4.70;71.00;;;;;;9186304;19;20474;-66
2022/03/16 03:29:42;;;;;;;22.80;11.50;;;4.70;71.00;;;;;;9184120;19;20018;-65
2022/03/16 03:32:47;;;;;;;19.35;11.60;;;4.60;71.00;;;;;;9180141;19;20019;-66
2022/03/16 03:35:52;;;;;;;19.80;12.02;;;4.70;71.00;;;;;;9180914;19;20018;-66
2022/03/16 03:38:57;;;;;;;22.20;12.18;;;4.60;71.10;;;;;;9183772;19;20011;-65
2022/03/16 03:42:05;;;;;;;26.00;11.88;;;4.60;71.00;;;;;;9183065;19;20014;-67
2022/03/16 03:45:11;;;;;;;20.73;12.95;;;4.60;71.00;;;;;;9184422;19;20528;-65
2022/03/16 03:48:16;;;;;;;21.23;11.82;;;4.50;71.00;;;;;;9184739;19;20018;-66
2022/03/16 03:51:21;;;;;;;23.15;12.55;;;4.50;71.10;;;;;;9182380;19;20026;-65
2022/03/16 03:54:26;;;;;;;23.85;12.63;;;4.50;71.10;;;;;;9180161;19;20015;-65
2022/03/16 03:57:34;;;;;;;20.17;11.70;;;4.50;71.10;;;;;;9183999;19;20018;-65
2022/03/16 04:00:39;;;;;;;19.17;11.35;;;4.50;71.20;;;;;;9185255;19;20018;-67
2022/03/16 04:03:44;;;;;;;21.08;10.63;;;4.40;71.10;;;;;;9183630;19;20337;-65
2022/03/16 04:06:49;;;;;;;17.25;10.50;;;4.50;71.20;;;;;;9182798;19;20014;-66
2022/03/16 04:09:54;;;;;;;20.20;10.70;;;4.40;71.20;;;;;;9182124;19;20014;-65
2022/03/16 04:13:02;;;;;;;17.38;11.02;;;4.40;71.20;;;;;;9179967;19;20025;-67
2022/03/16 04:16:08;;;;;;;18.95;11.02;;;4.40;71.20;;;;;;9181445;19;20026;-66
2022/03/16 04:19:13;;;;;;;17.23;10.75;;;4.40;71.20;;;;;;9181599;19;20007;-64
2022/03/16 04:22:18;;;;;;;19.73;10.05;;;4.30;71.20;;;;;;9182471;19;20018;-66
2022/03/16 04:25:23;;;;;;;23.40;11.07;;;4.30;71.20;;;;;;9181222;19;20027;-66
2022/03/16 04:28:30;;;;;;;21.88;11.52;;;4.30;71.30;;;;;;9182483;19;20475;-66
2022/03/16 04:31:36;;;;;;;16.83;11.15;;;4.20;71.20;;;;;;9181276;19;20406;-65
2022/03/16 04:34:41;;;;;;;18.95;11.13;;;4.30;71.30;;;;;;9176731;19;20011;-64
2022/03/16 04:37:46;;;;;;;28.33;12.02;;;4.20;71.30;;;;;;9181531;19;20018;-65
2022/03/16 04:40:51;;;;;;;22.92;13.35;;;4.20;71.30;;;;;;9180917;19;20030;-67
2022/03/16 04:43:59;;;;;;;21.20;13.07;;;4.20;71.30;;;;;;9181433;19;20373;-66
2022/03/16 04:47:04;;;;;;;19.55;12.98;;;4.20;71.30;;;;;;9180547;19;20022;-67
2022/03/16 04:50:10;;;;;;;21.40;13.55;;;4.20;71.40;;;;;;9180207;19;20022;-67
2022/03/16 04:53:15;;;;;;;26.75;14.27;;;4.20;71.40;;;;;;9179349;19;20336;-65
2022/03/16 04:56:20;;;;;;;26.02;14.50;;;4.10;71.40;;;;;;9182042;19;20014;-64
2022/03/16 04:59:28;;;;;;;27.80;13.98;;;4.10;71.50;;;;;;9181324;19;20015;-65
2022/03/16 05:02:32;;;;;;;22.20;13.07;;;4.10;71.60;;;;;;9180238;19;20026;-65
2022/03/16 05:05:39;;;;;;;27.10;13.48;;;4.10;71.60;;;;;;9179535;19;20022;-66
2022/03/16 05:08:45;;;;;;;25.33;13.15;;;4.10;71.60;;;;;;9181162;19;20014;-65
2022/03/16 05:11:50;;;;;;;22.40;13.93;;;4.10;71.60;;;;;;9180072;19;20021;-66
2022/03/16 05:14:58;;;;;;;27.60;13.63;;;4.10;71.60;;;;;;9179520;19;20014;-65
2022/03/16 05:18:03;;;;;;;25.92;13.75;;;4.10;71.70;;;;;;9180838;19;20025;-66
2022/03/16 05:21:08;;;;;;;23.00;13.30;;;4.00;71.60;;;;;;9178691;19;20014;-65
2022/03/16 05:24:13;;;;;;;25.70;14.23;;;4.10;71.70;;;;;;9182225;19;20119;-65
2022/03/16 05:27:19;;;;;;;25.45;13.90;;;4.00;71.60;;;;;;9181552;19;20050;-65
2022/03/16 05:30:27;;;;;;;23.33;14.07;;;4.00;71.60;;;;;;9179029;19;20471;-66
2022/03/16 05:33:32;;;;;;;29.75;13.60;;;4.00;71.60;;;;;;9174265;19;20022;-67
2022/03/16 05:36:37;;;;;;;25.20;14.07;;;4.00;71.70;;;;;;9180230;19;20018;-66
2022/03/16 05:39:42;;;;;;;20.15;12.40;;;4.00;71.70;;;;;;9175881;19;20018;-65
2022/03/16 05:42:48;;;;;;;23.52;13.77;;;4.00;71.60;;;;;;9178766;19;20512;-66
2022/03/16 05:46:01;;;;;;;30.17;14.45;;;4.00;71.70;;;;;;9178609;19;20018;-66
2022/03/16 05:49:06;;;;;;;21.38;12.70;;;4.00;71.60;;;;;;9177766;19;20025;-65
2022/03/16 05:52:12;;;;;;;23.58;13.27;;;3.90;71.70;;;;;;9178524;19;20025;-66
2022/03/16 05:55:17;;;;;;;22.13;13.00;;;3.90;71.60;;;;;;9174913;19;20021;-65
2022/03/16 05:58:23;;;;;;;22.85;12.85;;;3.90;71.60;;;;;;9178214;19;20018;-65
2022/03/16 06:01:30;;;;;;;25.88;13.63;;;3.90;71.60;;;;;;9176186;19;20649;-66
2022/03/16 06:04:36;;;;;;;23.85;12.73;;;3.90;71.70;;;;;;9177842;19;20011;-66
2022/03/16 06:07:41;;;;;;;24.27;12.43;;;3.90;71.70;;;;;;9179007;19;20014;-65
2022/03/16 06:10:46;;;;;;;20.92;11.77;;;3.90;71.70;;;;;;9177220;19;20021;-64
2022/03/16 06:13:51;;;;;;;22.40;12.82;;;3.80;71.80;;;;;;9176884;19;20019;-66
2022/03/16 06:16:59;;;;;;;23.05;13.38;;;3.90;71.80;;;;;;9177846;19;20047;-65
2022/03/16 06:20:04;;;;;;;25.50;14.35;;;3.80;71.80;;;;;;9177237;19;20018;-66
2022/03/16 06:23:09;;;;;;;25.40;13.68;;;3.80;71.80;;;;;;9175514;19;20018;-66
2022/03/16 06:26:17;;;;;;;30.23;14.32;;;3.80;71.90;;;;;;9175390;19;20026;-66
2022/03/16 06:29:22;;;;;;;23.65;14.43;;;3.80;72.00;;;;;;9176404;19;20011;-66
2022/03/16 06:32:30;;;;;;;29.25;16.02;;;3.90;72.10;;;;;;9176461;19;20019;-65
2022/03/16 06:35:35;;;;;;;25.73;15.00;;;3.80;72.10;;;;;;9169912;19;20044;-65
2022/03/16 06:38:40;;;;;;;34.30;16.75;;;3.90;72.20;;;;;;9176420;19;20030;-67
2022/03/16 06:41:54;;;;;;;31.02;17.05;;;3.90;72.20;;;;;;9177505;19;20010;-66
2022/03/16 06:44:59;;;;;;;32.75;17.08;;;3.90;72.30;;;;;;9175697;19;20019;-67
2022/03/16 06:48:07;;;;;;;28.73;16.17;;;3.90;72.40;;;;;;9174045;19;20018;-67
2022/03/16 06:51:12;;;;;;;32.63;17.23;;;4.00;72.60;;;;;;9179781;19;20019;-65
2022/03/16 06:54:17;;;;;;;32.40;17.52;;;4.00;72.50;;;;;;9183899;19;20029;-66
2022/03/16 06:57:22;;;;;;;33.08;18.25;;;4.00;72.60;;;;;;9184906;19;20468;-66
2022/03/16 07:00:37;;;;;;;37.55;19.90;;;4.10;72.70;;;;;;9183953;19;20019;-67
2022/03/16 07:03:45;;;;;;;30.40;18.55;;;4.20;72.80;;;;;;9186246;19;20105;-67
2022/03/16 07:06:52;;;;;;;32.63;19.20;;;4.20;72.90;;;;;;9185954;19;20025;-66
2022/03/16 07:09:56;;;;;;;38.20;20.10;;;4.20;72.90;;;;;;9181127;19;20018;-66
2022/03/16 07:13:02;;;;;;;36.75;19.88;;;4.30;73.00;;;;;;9183815;19;20033;-66
2022/03/16 07:16:07;;;;;;;36.63;19.67;;;4.40;73.10;;;;;;9183652;19;20014;-66
2022/03/16 07:19:26;;;;;;;38.70;20.88;;;4.40;73.10;;;;;;9185938;19;20480;-67
2022/03/16 07:22:31;;;;;;;38.65;21.05;;;4.50;73.20;;;;;;9183591;19;20014;-70
2022/03/16 07:25:56;;;;;;;35.75;19.45;;;4.50;73.20;;;;;;9174089;19;20018;-65
2022/03/16 07:29:01;;;;;;;36.42;21.65;;;4.60;73.20;;;;;;9173330;19;20014;-68
2022/03/16 07:32:09;;;;;;;36.80;21.85;;;4.70;73.30;;;;;;9171226;19;20018;-67
2022/03/16 07:35:17;;;;;;;45.15;22.40;;;4.70;73.40;;;;;;9160114;19;20014;-68
2022/03/16 07:38:22;;;;;;;43.97;23.83;;;4.80;73.50;;;;;;9185405;19;20094;-68
2022/03/16 07:41:27;;;;;;;43.97;25.38;;;4.90;73.50;;;;;;9184850;19;20020;-68
2022/03/16 07:44:32;;;;;;;53.05;28.05;;;4.90;73.70;;;;;;9184676;19;20017;-66
2022/03/16 07:47:38;;;;;;;68.20;33.40;;;5.10;73.80;;;;;;9181538;19;20034;-66
2022/03/16 07:50:46;;;;;;;68.03;33.50;;;5.20;74.00;;;;;;9177189;19;20089;-67
2022/03/16 07:53:51;;;;;;;67.53;36.67;;;5.30;74.20;;;;;;9176779;19;20031;-67
2022/03/16 07:56:56;;;;;;;83.63;39.00;;;5.40;74.30;;;;;;9179525;19;20058;-67
2022/03/16 08:00:01;;;;;;;76.55;38.78;;;5.60;74.40;;;;;;9177424;19;20039;-67
2022/03/16 08:03:08;;;;;;;80.57;40.55;;;5.80;74.60;;;;;;9175652;19;20018;-66
2022/03/16 08:06:16;;;;;;;81.35;42.65;;;5.90;74.60;;;;;;9176552;19;20022;-67
2022/03/16 08:09:26;;;;;;;69.45;37.75;;;6.20;75.00;;;;;;9177731;19;20397;-67
2022/03/16 08:12:31;;;;;;;54.90;32.05;;;6.40;75.00;;;;;;9177277;19;20023;-69
2022/03/16 08:15:36;;;;;;;61.78;32.15;;;6.60;75.10;;;;;;9174890;19;20727;-67
2022/03/16 08:18:41;;;;;;;49.03;29.25;;;6.80;75.10;;;;;;9176142;19;20027;-67
2022/03/16 08:21:49;;;;;;;54.00;30.73;;;7.00;75.10;;;;;;9175951;19;20536;-68
2022/03/16 08:24:54;;;;;;;46.85;28.45;;;7.20;75.10;;;;;;9178312;19;20018;-68
2022/03/16 08:28:01;;;;;;;44.85;27.45;;;7.40;75.20;;;;;;9176910;19;20014;-67
2022/03/16 08:31:08;;;;;;;50.58;26.42;;;7.60;75.20;;;;;;9178137;19;20048;-67
2022/03/16 08:34:13;;;;;;;40.92;24.98;;;7.90;75.20;;;;;;9173718;19;20021;-68
2022/03/16 08:37:21;;;;;;;42.80;23.55;;;8.10;75.20;;;;;;9175723;19;20019;-67
2022/03/16 08:40:27;;;;;;;45.95;22.05;;;8.30;75.20;;;;;;9175857;19;20015;-69
2022/03/16 08:43:32;;;;;;;36.92;21.33;;;8.60;75.10;;;;;;9176175;19;20363;-68
2022/03/16 08:46:37;;;;;;;40.47;20.42;;;8.80;75.00;;;;;;9175156;19;20506;-67
2022/03/16 08:49:42;;;;;;;36.03;20.60;;;9.10;75.00;;;;;;9175147;19;20025;-68
2022/03/16 08:52:50;;;;;;;34.33;19.05;;;9.30;74.90;;;;;;9178984;19;20130;-67
2022/03/16 08:55:55;;;;;;;39.10;18.83;;;9.50;74.80;;;;;;9173401;19;20018;-67
2022/03/16 08:59:00;;;;;;;32.70;19.25;;;9.80;74.70;;;;;;9175789;19;20014;-68
2022/03/16 09:02:06;;;;;;;31.67;17.35;;;10.00;74.60;;;;;;9181632;19;20372;-69
2022/03/16 09:05:12;;;;;;;27.48;15.02;;;10.20;74.40;;;;;;9179994;19;20015;-69
2022/03/16 09:08:20;;;;;;;22.50;13.57;;;10.50;74.30;;;;;;9181160;19;20010;-68
2022/03/16 09:11:25;;;;;;;24.65;13.25;;;10.70;74.10;;;;;;9179002;19;20483;-68
2022/03/16 09:14:30;;;;;;;19.08;11.30;;;10.90;73.80;;;;;;9178320;19;20018;-68
2022/03/16 09:17:37;;;;;;;23.45;12.70;;;11.20;73.70;;;;;;9175424;19;20022;-70
2022/03/16 09:20:42;;;;;;;23.45;13.82;;;11.40;73.50;;;;;;9172950;19;20111;-68
2022/03/16 09:23:50;;;;;;;19.75;12.43;;;11.60;73.30;;;;;;9170735;19;21435;-67
2022/03/16 09:26:58;;;;;;;20.38;11.30;;;11.80;73.00;;;;;;9174711;19;20018;-67
2022/03/16 09:30:03;;;;;;;23.00;11.90;;;12.00;72.90;;;;;;9171006;19;20010;-68
2022/03/16 09:33:09;;;;;;;23.35;10.88;;;12.20;72.70;;;;;;9175154;19;20014;-67
2022/03/16 09:36:14;;;;;;;24.58;12.80;;;12.40;72.60;;;;;;9161371;19;20015;-67
2022/03/16 09:39:22;;;;;;;26.70;12.98;;;12.60;72.40;;;;;;9172625;19;20094;-67
2022/03/16 09:42:29;;;;;;;17.83;11.48;;;12.70;72.10;;;;;;9170628;19;20349;-68
2022/03/16 09:45:42;;;;;;;18.88;11.02;;;13.00;71.80;;;;;;9168621;19;20033;-70
2022/03/16 09:48:47;;;;;;;16.50;10.48;;;13.10;71.50;;;;;;9171738;19;20018;-68
2022/03/16 09:51:53;;;;;;;20.27;10.30;;;13.30;71.40;;;;;;9173891;19;20583;-68
2022/03/16 09:55:01;;;;;;;29.60;12.63;;;13.40;71.00;;;;;;9170730;19;20015;-69
2022/03/16 09:58:07;;;;;;;17.60;10.07;;;13.50;70.80;;;;;;9171415;19;20017;-69
2022/03/16 10:01:12;;;;;;;21.05;9.68;;;13.70;71.30;;;;;;9172226;19;20796;-69
2022/03/16 10:04:30;;;;;;;19.63;9.80;;;13.80;70.30;;;;;;9172504;19;20116;-68
2022/03/16 10:07:36;;;;;;;21.25;9.95;;;14.00;69.90;;;;;;9168889;19;20019;-67
2022/03/16 10:14:11;;;;;;;17.85;10.05;;;14.20;69.60;;;;;;9173827;19;20380;-67
2022/03/16 10:20:35;;;;;;;17.38;10.15;;;14.30;69.10;;;;;;9174512;19;20098;-67
2022/03/16 10:23:42;;;;;;;18.77;10.20;;;14.40;68.90;;;;;;9173192;19;20029;-67
2022/03/16 10:26:56;;;;;;;22.65;9.63;;;14.30;68.70;;;;;;9178693;19;20010;-68
2022/03/16 10:30:02;;;;;;;21.42;10.25;;;14.40;68.30;;;;;;9179700;19;20022;-68
2022/03/16 10:33:18;;;;;;;19.52;10.57;;;14.40;68.50;;;;;;9178344;19;20019;-68
2022/03/16 10:36:26;;;;;;;17.40;9.57;;;14.40;68.40;;;;;;9180422;19;20021;-68
2022/03/16 10:39:35;;;;;;;16.13;9.75;;;14.50;68.20;;;;;;9187469;19;20046;-68
2022/03/16 10:49:20;;;;;;;19.17;9.88;;;14.70;68.00;;;;;;9185824;19;20360;-68
2022/03/16 10:52:27;;;;;;;16.70;9.32;;;14.80;67.90;;;;;;9187657;19;20112;-68
2022/03/16 10:55:32;;;;;;;15.88;9.07;;;14.90;67.70;;;;;;9182551;19;20026;-68
2022/03/16 10:58:39;;;;;;;18.35;8.68;;;15.00;67.50;;;;;;9188530;19;20022;-68
2022/03/16 11:01:48;;;;;;;15.68;8.95;;;15.00;67.20;;;;;;9187486;19;20022;-69
2022/03/16 11:04:54;;;;;;;15.65;9.32;;;15.10;67.10;;;;;;9186424;19;20026;-69
2022/03/16 11:08:00;;;;;;;18.30;9.73;;;15.20;66.90;;;;;;9185715;19;20022;-68
2022/03/16 11:13:28;;;;;;;22.63;10.02;;;15.20;66.80;;;;;;9184147;19;20761;-69
2022/03/16 11:14:35;;;;;;;23.05;11.43;;;15.30;66.60;;;;;;9186490;19;20022;-68
2022/03/16 11:17:41;;;;;;;17.67;9.65;;;15.40;66.40;;;;;;9183247;19;20378;-68
2022/03/16 11:20:48;;;;;;;16.50;9.32;;;15.60;66.50;;;;;;9184651;19;20459;-69
2022/03/16 11:27:45;;;;;;;16.75;9.57;;;15.70;66.00;;;;;;9187509;19;20034;-69
2022/03/16 11:30:55;;;;;;;20.73;10.20;;;15.80;65.60;;;;;;9182589;19;20487;-68
2022/03/16 11:34:02;;;;;;;18.30;9.95;;;15.90;65.60;;;;;;9180589;19;20015;-69
2022/03/16 11:37:10;;;;;;;21.15;10.13;;;16.00;65.60;;;;;;9182214;19;20014;-69
2022/03/16 11:40:16;;;;;;;15.25;9.15;;;16.10;65.40;;;;;;9181109;19;20018;-68
2022/03/16 11:43:24;;;;;;;25.88;9.40;;;16.20;65.20;;;;;;9183043;19;20011;-69
2022/03/16 11:46:33;;;;;;;17.02;8.93;;;16.20;65.00;;;;;;9183142;19;20022;-68
2022/03/16 11:49:42;;;;;;;16.13;9.50;;;16.40;64.80;;;;;;9182492;19;20020;-69
2022/03/16 11:53:07;;;;;;;17.02;9.38;;;16.40;64.70;;;;;;9185747;19;20337;-67
2022/03/16 11:56:21;;;;;;;15.38;10.05;;;16.50;64.20;;;;;;9183810;19;20030;-69
2022/03/16 11:59:31;;;;;;;;;;;16.60;64.30;;;;;;9186389;19;20014;-69
2022/03/16 12:02:40;;;;;;;15.43;8.98;;;16.60;64.70;;;;;;9184096;19;20720;-68
2022/03/16 12:05:58;;;;;;;13.57;9.35;;;16.70;64.40;;;;;;9182888;19;20018;-68
2022/03/16 12:09:06;;;;;;;17.33;9.75;;;16.70;63.80;;;;;;9181231;19;20018;-69
2022/03/16 12:15:34;;;;;;;15.43;10.10;;;16.90;64.00;;;;;;9184748;19;20014;-69
2022/03/16 12:18:49;;;;;;;17.30;10.05;;;16.90;63.80;;;;;;9182837;19;20378;-69
2022/03/16 12:21:53;;;;;;;;;;;16.90;63.40;;;;;;9185184;19;20023;-69
2022/03/16 12:25:34;;;;;;;21.70;10.32;;;17.00;63.90;;;;;;9181273;19;19915;-69
2022/03/16 12:31:57;;;;;;;14.85;9.50;;;17.10;63.60;;;;;;9182004;19;20022;-68
2022/03/16 12:35:06;;;;;;;20.48;9.60;;;17.20;63.40;;;;;;9175364;19;20013;-68
2022/03/16 12:38:12;;;;;;;16.63;10.40;;;17.20;63.20;;;;;;9179128;19;20372;-69
2022/03/16 12:44:42;;;;;;;19.33;9.73;;;17.30;62.80;;;;;;9171435;19;20030;-69
2022/03/16 12:48:03;;;;;;;15.18;9.85;;;17.30;62.80;;;;;;9175018;19;20018;-68
2022/03/16 12:51:10;;;;;;;21.40;10.27;;;17.30;62.30;;;;;;9171581;19;20022;-67
2022/03/16 12:54:20;;;;;;;17.85;9.93;;;17.40;62.20;;;;;;9173597;19;20070;-66
2022/03/16 12:57:25;;;;;;;19.13;10.70;;;17.40;62.10;;;;;;9172059;19;20361;-66
2022/03/16 13:00:38;;;;;;;14.15;9.23;;;17.40;62.00;;;;;;9169272;19;20015;-66
2022/03/16 13:03:44;;;;;;;16.15;9.68;;;17.30;61.70;;;;;;9174011;19;20025;-67
2022/03/16 13:06:54;;;;;;;17.50;11.30;;;17.30;61.80;;;;;;9173366;19;20025;-67
2022/03/16 13:10:00;;;;;;;19.02;9.80;;;17.30;61.60;;;;;;9169711;19;20053;-66
2022/03/16 13:13:11;;;;;;;20.92;11.57;;;17.20;61.50;;;;;;9173382;19;20026;-67
2022/03/16 13:16:31;;;;;;;18.73;10.82;;;17.10;61.20;;;;;;9169211;19;20026;-67
2022/03/16 13:19:38;;;;;;;21.65;11.98;;;17.10;61.10;;;;;;9174484;19;20014;-67
2022/03/16 13:22:45;;;;;;;20.13;12.15;;;17.00;61.40;;;;;;9167870;19;20019;-67
2022/03/16 13:25:51;;;;;;;17.48;11.18;;;16.90;61.30;;;;;;9169819;19;20749;-67
2022/03/16 13:28:57;;;;;;;18.25;10.82;;;16.90;61.40;;;;;;9171938;19;20010;-67
2022/03/16 13:32:04;;;;;;;18.85;11.40;;;16.80;61.40;;;;;;9168921;19;20022;-68
2022/03/16 13:35:15;;;;;;;16.90;11.60;;;16.80;61.40;;;;;;9168406;19;20041;-67
2022/03/16 13:38:33;;;;;;;15.05;10.75;;;16.70;61.30;;;;;;9168625;19;20464;-67
2022/03/16 13:42:04;;;;;;;19.10;11.38;;;16.70;61.20;;;;;;9165542;19;20024;-66
2022/03/16 13:45:15;;;;;;;20.45;11.13;;;16.70;61.50;;;;;;9164833;19;20903;-68
2022/03/16 13:48:22;;;;;;;20.45;12.23;;;16.70;61.20;;;;;;9173248;19;20341;-68
2022/03/16 13:51:32;;;;;;;16.63;11.45;;;16.70;61.40;;;;;;9170948;19;20085;-68
2022/03/16 13:54:42;;;;;;;22.67;12.65;;;16.70;61.30;;;;;;9171184;19;20010;-67
2022/03/16 13:57:48;;;;;;;23.10;12.23;;;16.70;61.20;;;;;;9171237;19;20011;-67
2022/03/16 14:00:57;;;;;;;19.70;12.25;;;16.70;61.20;;;;;;9169661;19;20037;-69
2022/03/16 14:04:06;;;;;;;20.55;12.30;;;16.70;61.10;;;;;;9169530;19;20029;-68
2022/03/16 14:07:23;;;;;;;18.58;11.27;;;16.70;61.00;;;;;;9171673;19;20014;-68
2022/03/16 14:10:32;;;;;;;17.02;11.65;;;16.70;60.90;;;;;;9173450;19;20029;-67
2022/03/16 14:13:42;;;;;;;26.05;12.50;;;16.60;60.90;;;;;;9173007;19;20026;-67
2022/03/16 14:16:50;;;;;;;19.52;11.32;;;16.60;60.90;;;;;;9171907;19;20048;-67
2022/03/16 14:19:55;;;;;;;20.33;12.07;;;16.60;60.90;;;;;;9172827;19;20018;-68
2022/03/16 14:23:01;;;;;;;21.25;12.95;;;16.60;60.80;;;;;;9172112;19;20019;-67
2022/03/16 14:26:09;;;;;;;18.55;12.43;;;16.60;60.80;;;;;;9173876;19;20373;-68
2022/03/16 14:29:13;;;;;;;21.90;12.75;;;16.50;60.80;;;;;;9171762;19;20025;-67
2022/03/16 14:32:20;;;;;;;22.48;12.52;;;16.40;60.70;;;;;;9162133;19;20037;-66
2022/03/16 14:35:31;;;;;;;25.15;13.57;;;16.40;60.70;;;;;;9162402;19;20072;-67
2022/03/16 14:38:36;;;;;;;18.90;12.55;;;16.40;60.80;;;;;;9169543;19;20121;-68
2022/03/16 14:41:44;;;;;;;19.30;12.32;;;16.30;60.90;;;;;;9170293;19;20022;-68
2022/03/16 14:44:49;;;;;;;20.63;12.60;;;16.30;60.80;;;;;;9174012;19;20026;-67
2022/03/16 14:47:54;;;;;;;21.15;12.30;;;16.20;60.90;;;;;;9170869;19;20018;-67
2022/03/16 14:50:59;;;;;;;22.95;13.05;;;16.20;60.90;;;;;;9167291;19;20022;-67
2022/03/16 14:54:08;;;;;;;21.90;13.20;;;16.20;60.90;;;;;;9168872;19;20378;-68
2022/03/16 14:57:15;;;;;;;25.48;13.32;;;16.20;60.90;;;;;;9165207;19;20014;-67
2022/03/16 15:00:21;;;;;;;19.98;12.68;;;16.20;60.90;;;;;;9164478;19;20499;-67
2022/03/16 15:03:26;;;;;;;18.52;12.48;;;16.20;60.90;;;;;;9165909;19;20015;-67
2022/03/16 15:06:31;;;;;;;18.95;12.55;;;16.10;60.80;;;;;;9172907;19;20038;-67
2022/03/16 15:09:36;;;;;;;23.13;13.27;;;16.10;60.70;;;;;;9165454;19;20030;-67
2022/03/16 15:12:44;;;;;;;20.75;12.52;;;16.10;60.70;;;;;;9171365;19;20538;-66
2022/03/16 15:15:49;;;;;;;21.35;12.30;;;16.10;60.60;;;;;;9180795;19;20783;-67
2022/03/16 15:18:54;;;;;;;24.90;13.23;;;16.10;60.70;;;;;;9175702;19;20022;-67
2022/03/16 15:21:59;;;;;;;19.98;12.00;;;16.10;60.70;;;;;;9179228;19;20495;-68
2022/03/16 15:25:04;;;;;;;17.35;12.07;;;16.00;60.50;;;;;;9171214;19;20025;-67
2022/03/16 15:28:12;;;;;;;23.13;12.98;;;16.00;60.50;;;;;;9177025;19;20015;-67
2022/03/16 15:31:17;;;;;;;19.38;12.10;;;16.00;60.40;;;;;;9176574;19;20018;-68
2022/03/16 15:34:23;;;;;;;19.77;12.48;;;16.00;60.40;;;;;;9174275;19;20692;-68
2022/03/16 15:37:28;;;;;;;23.38;11.38;;;16.00;60.40;;;;;;9177634;19;20491;-67
2022/03/16 15:43:53;;;;;;;17.70;11.15;;;16.00;60.20;;;;;;9177011;19;20014;-68
2022/03/16 15:46:58;;;;;;;17.00;11.38;;;15.90;60.10;;;;;;9178553;19;20019;-68
2022/03/16 15:50:05;;;;;;;17.10;11.52;;;15.90;60.10;;;;;;9177926;19;20022;-67
2022/03/16 15:53:10;;;;;;;16.67;10.90;;;15.90;60.00;;;;;;9177157;19;20111;-67
2022/03/16 15:56:15;;;;;;;18.30;10.73;;;15.80;60.00;;;;;;9174627;19;20021;-67
2022/03/16 15:59:23;;;;;;;14.88;10.27;;;15.80;60.00;;;;;;9172648;19;20014;-67
2022/03/16 16:02:28;;;;;;;15.93;9.98;;;15.80;59.90;;;;;;9170449;19;20498;-67
2022/03/16 16:05:33;;;;;;;27.70;10.90;;;15.80;60.00;;;;;;9176254;19;20881;-68
2022/03/16 16:08:38;;;;;;;15.90;11.35;;;15.80;59.90;;;;;;9174144;19;20015;-68
2022/03/16 16:11:44;;;;;;;20.77;11.52;;;15.70;59.90;;;;;;9173560;19;20033;-66
2022/03/16 16:14:53;;;;;;;20.42;12.95;;;15.70;60.00;;;;;;9174736;19;20023;-67
2022/03/16 16:17:58;;;;;;;23.27;13.10;;;15.70;59.80;;;;;;9172664;19;20022;-66
2022/03/16 16:21:05;;;;;;;21.90;13.45;;;15.60;59.80;;;;;;9172057;19;20025;-66
2022/03/16 16:24:15;;;;;;;22.48;14.52;;;15.60;59.90;;;;;;9174494;19;20021;-67
2022/03/16 16:27:20;;;;;;;25.17;15.27;;;15.60;60.00;;;;;;9175342;19;20018;-67
2022/03/16 16:30:33;;;;;;;24.55;14.95;;;15.50;60.00;;;;;;9176294;19;20021;-67